createdAt,value
2023-02-22T00:00:22.526Z,19.80
2023-02-22T00:02:49.204Z,19.80
2023-02-22T00:05:16.117Z,19.79
2023-02-22T00:07:42.756Z,19.77
2023-02-22T00:10:09.380Z,19.79
2023-02-22T00:12:36.046Z,19.80
2023-02-22T00:15:02.711Z,19.76
2023-02-22T00:17:29.362Z,19.77
2023-02-22T00:19:56.012Z,19.77
2023-02-22T00:22:22.671Z,19.76
2023-02-22T00:24:49.328Z,19.77
2023-02-22T00:27:16.207Z,19.76
2023-02-22T00:29:42.866Z,19.74
2023-02-22T00:32:09.621Z,19.72
2023-02-22T00:34:36.333Z,19.69
2023-02-22T00:37:02.986Z,19.70
2023-02-22T00:39:29.638Z,19.69
2023-02-22T00:41:56.393Z,19.69
2023-02-22T00:44:23.277Z,19.69
2023-02-22T00:46:49.918Z,19.66
2023-02-22T00:49:16.580Z,19.63
2023-02-22T00:51:43.229Z,19.59
2023-02-22T00:54:09.895Z,19.59
2023-02-22T00:56:36.559Z,19.58
2023-02-22T00:59:03.239Z,19.55
2023-02-22T01:01:30.158Z,19.56
2023-02-22T01:03:56.832Z,19.53
2023-02-22T01:06:23.616Z,19.52
2023-02-22T01:08:50.303Z,19.52
2023-02-22T01:11:17.320Z,19.49
2023-02-22T01:13:44.197Z,19.45
2023-02-22T01:16:10.888Z,19.43
2023-02-22T01:18:37.598Z,19.42
2023-02-22T01:21:04.236Z,19.42
2023-02-22T01:23:31.131Z,19.39
2023-02-22T01:25:57.798Z,19.36
2023-02-22T01:28:24.442Z,19.35
2023-02-22T01:30:51.175Z,19.32
2023-02-22T01:33:17.880Z,19.29
2023-02-22T01:35:44.553Z,19.28
2023-02-22T01:38:11.198Z,19.28
2023-02-22T01:40:38.087Z,19.28
2023-02-22T01:43:04.759Z,19.21
2023-02-22T01:45:31.407Z,19.22
2023-02-22T01:47:58.063Z,19.18
2023-02-22T01:50:24.732Z,19.14
2023-02-22T01:52:51.413Z,19.11
2023-02-22T01:55:18.092Z,19.09
2023-02-22T01:57:44.773Z,19.05
2023-02-22T02:00:11.423Z,19.04
2023-02-22T02:02:38.068Z,19.04
2023-02-22T02:05:04.773Z,19.01
2023-02-22T02:07:31.442Z,18.99
2023-02-22T02:09:58.099Z,18.97
2023-02-22T02:12:24.768Z,18.90
2023-02-22T02:14:51.420Z,18.90
2023-02-22T02:17:18.066Z,18.88
2023-02-22T02:19:44.755Z,18.84
2023-02-22T02:22:11.665Z,18.81
2023-02-22T02:24:38.314Z,18.81
2023-02-22T02:27:04.956Z,18.78
2023-02-22T02:29:31.588Z,18.75
2023-02-22T02:31:58.335Z,18.74
2023-02-22T02:34:25.271Z,18.74
2023-02-22T02:36:51.956Z,18.70
2023-02-22T02:39:18.624Z,18.65
2023-02-22T02:41:45.278Z,18.64
2023-02-22T02:44:11.952Z,18.61
2023-02-22T02:46:38.594Z,18.60
2023-02-22T02:49:05.251Z,18.54
2023-02-22T02:51:31.909Z,18.56
2023-02-22T02:53:58.532Z,18.50
2023-02-22T02:56:25.182Z,18.50
2023-02-22T02:58:51.844Z,18.46
2023-02-22T03:01:18.858Z,18.44
2023-02-22T03:03:45.699Z,18.39
2023-02-22T03:06:12.337Z,18.39
2023-02-22T03:08:38.992Z,18.34
2023-02-22T03:11:06.058Z,18.33
2023-02-22T03:13:32.711Z,18.32
2023-02-22T03:15:59.354Z,18.29
2023-02-22T03:18:27.091Z,18.25
2023-02-22T03:20:53.730Z,18.22
2023-02-22T03:23:20.379Z,18.20
2023-02-22T03:25:47.047Z,18.16
2023-02-22T03:28:13.714Z,18.14
2023-02-22T03:30:41.156Z,18.10
2023-02-22T03:33:07.820Z,18.09
2023-02-22T03:35:34.480Z,18.06
2023-02-22T03:38:01.131Z,18.06
2023-02-22T03:40:27.805Z,18.02
2023-02-22T03:42:54.465Z,17.99
2023-02-22T03:45:21.353Z,17.99
2023-02-22T03:47:48.000Z,17.98
2023-02-22T03:50:14.637Z,17.92
2023-02-22T03:52:41.283Z,17.92
2023-02-22T03:55:07.918Z,17.92
2023-02-22T03:57:34.559Z,17.88
2023-02-22T04:00:01.197Z,17.79
2023-02-22T04:02:27.849Z,17.81
2023-02-22T04:04:54.569Z,17.81
2023-02-22T04:07:21.477Z,17.78
2023-02-22T04:09:48.122Z,17.72
2023-02-22T04:12:15.001Z,17.69
2023-02-22T04:14:41.689Z,17.67
2023-02-22T04:17:08.334Z,17.64
2023-02-22T04:19:34.973Z,17.62
2023-02-22T04:22:01.640Z,17.59
2023-02-22T04:24:30.477Z,17.58
2023-02-22T04:26:57.304Z,17.52
2023-02-22T04:29:24.175Z,17.52
2023-02-22T04:31:50.912Z,17.49
2023-02-22T04:34:17.808Z,17.48
2023-02-22T04:36:44.461Z,17.44
2023-02-22T04:39:11.142Z,17.44
2023-02-22T04:41:37.808Z,17.39
2023-02-22T04:44:04.464Z,17.35
2023-02-22T04:46:31.396Z,17.31
2023-02-22T04:48:58.111Z,17.31
2023-02-22T04:51:24.776Z,16.99
2023-02-22T04:53:51.438Z,17.00
2023-02-22T04:59:05.605Z,16.88
2023-02-22T05:01:32.506Z,16.88
2023-02-22T05:03:59.165Z,16.81
2023-02-22T05:06:25.837Z,16.81
2023-02-22T05:08:52.498Z,16.80
2023-02-22T05:11:19.209Z,16.75
2023-02-22T05:13:45.909Z,16.73
2023-02-22T05:16:12.592Z,16.75
2023-02-22T05:18:39.460Z,16.72
2023-02-22T05:21:06.114Z,16.69
2023-02-22T05:23:32.973Z,16.67
2023-02-22T05:25:59.628Z,16.60
2023-02-22T05:28:26.289Z,16.60
2023-02-22T05:30:52.940Z,16.57
2023-02-22T05:33:19.581Z,16.56
2023-02-22T05:35:46.240Z,16.55
2023-02-22T05:38:12.938Z,16.52
2023-02-22T05:40:39.591Z,16.51
2023-02-22T05:43:06.462Z,16.48
2023-02-22T05:45:33.149Z,16.44
2023-02-22T05:47:59.801Z,16.41
2023-02-22T05:50:26.418Z,16.38
2023-02-22T05:52:53.077Z,16.36
2023-02-22T05:55:19.727Z,16.38
2023-02-22T05:57:46.411Z,16.32
2023-02-22T06:00:14.031Z,16.35
2023-02-22T06:02:40.674Z,16.29
2023-02-22T06:05:07.866Z,16.29
2023-02-22T06:07:34.536Z,16.25
2023-02-22T06:10:02.016Z,16.22
2023-02-22T06:12:28.892Z,16.21
2023-02-22T06:14:55.928Z,16.18
2023-02-22T06:17:22.602Z,16.15
2023-02-22T06:19:50.007Z,16.15
2023-02-22T06:22:16.664Z,16.15
2023-02-22T06:24:43.658Z,16.09
2023-02-22T06:27:10.308Z,16.06
2023-02-22T06:29:37.461Z,16.04
2023-02-22T06:32:04.231Z,16.00
2023-02-22T06:34:31.696Z,15.98
2023-02-22T06:37:00.000Z,15.97
2023-02-22T06:39:26.774Z,15.95
2023-02-22T06:41:53.710Z,15.94
2023-02-22T06:44:20.349Z,15.91
2023-02-22T06:46:48.225Z,15.90
2023-02-22T06:49:14.876Z,15.87
2023-02-22T06:51:41.848Z,15.85
2023-02-22T06:54:08.513Z,15.83
2023-02-22T06:56:35.175Z,15.80
2023-02-22T06:59:02.809Z,15.77
2023-02-22T07:01:29.597Z,15.77
2023-02-22T07:03:56.252Z,15.74
2023-02-22T07:06:23.781Z,15.70
2023-02-22T07:08:50.440Z,15.70
2023-02-22T07:11:17.446Z,15.64
2023-02-22T07:13:44.269Z,15.60
2023-02-22T07:16:10.987Z,15.61
2023-02-22T07:18:37.673Z,15.61
2023-02-22T07:21:04.331Z,15.58
2023-02-22T07:23:30.990Z,15.30
2023-02-22T07:25:57.672Z,15.18
2023-02-22T07:28:24.814Z,15.23
2023-02-22T07:30:51.448Z,15.27
2023-02-22T07:33:18.456Z,15.19
2023-02-22T07:35:45.125Z,15.20
2023-02-22T07:38:11.769Z,15.19
2023-02-22T07:40:38.432Z,15.18
2023-02-22T07:43:06.964Z,15.22
2023-02-22T07:45:33.908Z,15.26
2023-02-22T07:48:00.621Z,15.18
2023-02-22T07:50:27.468Z,15.13
2023-02-22T07:52:54.670Z,15.13
2023-02-22T07:55:21.316Z,15.18
2023-02-22T07:57:47.945Z,15.15
2023-02-22T08:00:14.613Z,15.18
2023-02-22T08:02:41.298Z,15.13
2023-02-22T08:05:07.985Z,15.12
2023-02-22T08:07:35.172Z,15.15
2023-02-22T08:10:01.801Z,15.15
2023-02-22T08:12:29.244Z,15.09
2023-02-22T08:14:55.901Z,15.09
2023-02-22T08:17:23.074Z,15.09
2023-02-22T08:19:49.709Z,15.06
2023-02-22T08:22:17.323Z,15.09
2023-02-22T08:24:43.962Z,15.06
2023-02-22T08:27:10.628Z,15.02
2023-02-22T08:29:37.296Z,14.99
2023-02-22T08:32:04.045Z,15.05
2023-02-22T08:34:30.773Z,15.05
2023-02-22T08:36:57.651Z,14.99
2023-02-22T08:39:24.292Z,15.02
2023-02-22T08:41:51.150Z,14.99
2023-02-22T08:44:18.142Z,14.98
2023-02-22T08:46:44.794Z,14.96
2023-02-22T08:49:11.455Z,14.96
2023-02-22T08:51:38.114Z,14.96
2023-02-22T08:54:04.792Z,14.98
2023-02-22T08:56:31.544Z,14.93
2023-02-22T08:58:58.240Z,14.89
2023-02-22T09:01:32.970Z,14.88
2023-02-22T09:04:00.363Z,14.85
2023-02-22T09:06:27.147Z,14.81
2023-02-22T09:08:53.786Z,14.75
2023-02-22T09:11:21.438Z,14.78
2023-02-22T09:13:48.079Z,14.78
2023-02-22T09:16:14.764Z,14.72
2023-02-22T09:18:44.263Z,14.74
2023-02-22T09:21:11.309Z,14.69
2023-02-22T09:23:37.974Z,14.68
2023-02-22T09:26:04.642Z,14.68
2023-02-22T09:28:31.297Z,14.69
2023-02-22T09:30:57.970Z,14.67
2023-02-22T09:33:24.713Z,14.65
2023-02-22T09:35:51.388Z,14.65
2023-02-22T09:38:18.046Z,14.65
2023-02-22T09:40:45.378Z,14.65
2023-02-22T09:43:12.350Z,14.62
2023-02-22T09:45:39.053Z,14.64
2023-02-22T09:48:20.712Z,14.64
2023-02-22T09:50:48.596Z,14.62
2023-02-22T09:53:15.744Z,14.64
2023-02-22T09:55:42.406Z,14.62
2023-02-22T09:58:09.049Z,14.62
2023-02-22T10:00:35.706Z,14.61
2023-02-22T10:03:02.341Z,14.61
2023-02-22T10:05:29.045Z,14.61
2023-02-22T10:07:55.709Z,14.61
2023-02-22T10:10:22.371Z,14.60
2023-02-22T10:12:49.416Z,14.60
2023-02-22T10:15:17.085Z,14.60
2023-02-22T10:17:43.753Z,14.58
2023-02-22T10:20:10.392Z,14.57
2023-02-22T10:22:37.020Z,14.54
2023-02-22T10:25:03.725Z,14.57
2023-02-22T10:27:30.373Z,14.54
2023-02-22T10:29:57.035Z,14.57
2023-02-22T10:32:23.728Z,14.58
2023-02-22T10:34:51.660Z,14.58
2023-02-22T10:37:18.359Z,14.62
2023-02-22T10:39:45.101Z,14.60
2023-02-22T10:42:12.448Z,14.61
2023-02-22T10:44:39.205Z,14.58
2023-02-22T10:47:05.843Z,14.60
2023-02-22T10:49:32.765Z,14.60
2023-02-22T10:51:59.405Z,14.58
2023-02-22T10:54:27.138Z,14.57
2023-02-22T10:56:53.999Z,14.54
2023-02-22T10:59:20.657Z,14.60
2023-02-22T11:01:47.365Z,14.55
2023-02-22T11:04:14.004Z,14.58
2023-02-22T11:06:40.885Z,14.57
2023-02-22T11:09:07.554Z,14.57
2023-02-22T11:11:34.213Z,14.55
2023-02-22T11:14:00.958Z,14.58
2023-02-22T11:16:27.671Z,14.55
2023-02-22T11:18:54.399Z,14.55
2023-02-22T11:21:21.075Z,14.57
2023-02-22T11:23:47.721Z,14.57
2023-02-22T11:26:14.383Z,14.55
2023-02-22T11:28:41.045Z,14.55
2023-02-22T11:31:07.866Z,14.54
2023-02-22T11:33:34.606Z,14.55
2023-02-22T11:36:01.238Z,14.52
2023-02-22T11:38:27.879Z,14.52
2023-02-22T11:40:54.539Z,14.52
2023-02-22T11:43:21.423Z,14.49
2023-02-22T11:45:57.815Z,14.54
2023-02-22T11:48:25.422Z,14.52
2023-02-22T11:50:52.092Z,14.49
2023-02-22T11:53:18.759Z,14.49
2023-02-22T11:55:45.420Z,14.48
2023-02-22T11:58:13.763Z,14.48
2023-02-22T12:00:40.502Z,14.46
2023-02-22T12:03:07.171Z,14.44
2023-02-22T12:05:34.076Z,14.45
2023-02-22T12:08:05.292Z,14.42
2023-02-22T12:10:37.552Z,14.42
2023-02-22T12:13:04.243Z,14.41
2023-02-22T12:15:30.988Z,14.41
2023-02-22T12:18:00.313Z,14.38
2023-02-22T12:20:27.194Z,14.37
2023-02-22T12:22:53.927Z,14.37
2023-02-22T12:25:20.641Z,14.35
2023-02-22T12:27:47.296Z,14.35
2023-02-22T12:30:14.108Z,14.34
2023-02-22T12:32:40.768Z,14.33
2023-02-22T12:35:07.422Z,14.28
2023-02-22T12:37:34.307Z,14.30
2023-02-22T12:40:00.975Z,14.30
2023-02-22T12:42:27.634Z,14.30
2023-02-22T12:44:54.280Z,14.24
2023-02-22T12:47:20.946Z,14.28
2023-02-22T12:49:47.625Z,14.25
2023-02-22T12:52:21.627Z,14.28
2023-02-22T12:54:48.917Z,14.24
2023-02-22T12:57:15.576Z,14.07
2023-02-22T12:59:42.218Z,14.17
2023-02-22T13:02:09.120Z,14.07
2023-02-22T13:04:35.778Z,13.97
2023-02-22T13:07:02.446Z,14.18
2023-02-22T13:09:29.330Z,14.18
2023-02-22T13:11:55.982Z,14.07
2023-02-22T13:14:22.631Z,14.12
2023-02-22T13:16:49.286Z,14.18
2023-02-22T13:19:15.912Z,14.23
2023-02-22T13:21:42.580Z,14.00
2023-02-22T13:24:09.260Z,14.04
2023-02-22T13:26:35.957Z,14.20
2023-02-22T13:29:02.654Z,14.21
2023-02-22T13:31:29.395Z,14.18
2023-02-22T13:33:56.073Z,14.14
2023-02-22T13:36:22.735Z,14.09
2023-02-22T13:38:49.415Z,14.20
2023-02-22T13:41:16.314Z,14.23
2023-02-22T13:43:43.114Z,14.24
2023-02-22T13:46:09.906Z,14.25
2023-02-22T13:48:36.594Z,14.27
2023-02-22T13:51:03.278Z,14.24
2023-02-22T13:53:29.957Z,14.30
2023-02-22T13:55:56.653Z,14.35
2023-02-22T13:58:23.300Z,14.33
2023-02-22T14:00:49.972Z,14.35
2023-02-22T14:03:16.978Z,14.35
2023-02-22T14:05:43.677Z,14.35
2023-02-22T14:08:10.353Z,14.35
2023-02-22T14:10:37.659Z,14.38
2023-02-22T14:13:04.404Z,14.35
2023-02-22T14:15:31.355Z,14.40
2023-02-22T14:17:58.068Z,14.46
2023-02-22T14:20:24.710Z,14.51
2023-02-22T14:22:51.460Z,14.58
2023-02-22T14:25:28.003Z,14.58
2023-02-22T14:27:55.176Z,14.60
2023-02-22T14:30:21.829Z,14.61
2023-02-22T14:32:48.735Z,14.72
2023-02-22T14:35:26.581Z,14.93
2023-02-22T14:37:56.608Z,15.02
2023-02-22T14:40:23.280Z,15.09
2023-02-22T14:42:50.022Z,15.12
2023-02-22T14:45:16.724Z,15.18
2023-02-22T14:47:43.385Z,15.23
2023-02-22T14:50:10.070Z,15.25
2023-02-22T14:52:36.722Z,15.30
2023-02-22T14:55:03.396Z,15.34
2023-02-22T14:57:30.064Z,15.43
2023-02-22T14:59:56.709Z,15.44
2023-02-22T15:02:23.403Z,15.47
2023-02-22T15:04:50.155Z,15.50
2023-02-22T15:07:16.815Z,15.56
2023-02-22T15:09:43.474Z,15.67
2023-02-22T15:12:10.137Z,15.66
2023-02-22T15:14:36.797Z,15.68
2023-02-22T15:17:03.460Z,15.70
2023-02-22T15:19:30.124Z,15.74
2023-02-22T15:21:56.787Z,15.75
2023-02-22T15:24:23.457Z,15.78
2023-02-22T15:27:01.080Z,15.81
2023-02-22T15:29:28.657Z,15.85
2023-02-22T15:31:55.324Z,15.90
2023-02-22T15:34:22.010Z,15.94
2023-02-22T15:36:48.685Z,16.00
2023-02-22T15:39:15.325Z,16.02
2023-02-22T15:41:42.007Z,16.04
2023-02-22T15:44:22.738Z,16.08
2023-02-22T15:46:50.516Z,16.11
2023-02-22T15:49:17.184Z,16.18
2023-02-22T15:51:43.831Z,16.21
2023-02-22T15:54:18.325Z,16.29
2023-02-22T15:56:51.883Z,16.32
2023-02-22T15:59:18.563Z,16.33
2023-02-22T16:01:45.294Z,16.39
2023-02-22T16:04:11.967Z,16.41
2023-02-22T16:06:38.648Z,16.48
2023-02-22T16:09:05.576Z,16.49
2023-02-22T16:11:32.215Z,16.55
2023-02-22T16:13:58.879Z,16.65
2023-02-22T16:16:25.566Z,16.63
2023-02-22T16:18:52.257Z,16.72
2023-02-22T16:21:19.170Z,16.75
2023-02-22T16:23:45.971Z,16.80
2023-02-22T16:26:12.618Z,16.81
2023-02-22T16:28:39.267Z,16.86
2023-02-22T16:31:05.990Z,16.93
2023-02-22T16:33:32.651Z,16.97
2023-02-22T16:35:59.284Z,16.99
2023-02-22T16:38:25.928Z,17.03
2023-02-22T16:40:52.557Z,17.08
2023-02-22T16:43:19.185Z,17.17
2023-02-22T16:45:46.106Z,17.23
2023-02-22T16:48:12.802Z,17.21
2023-02-22T16:50:39.469Z,17.31
2023-02-22T16:53:06.112Z,17.39
2023-02-22T16:55:32.766Z,17.41
2023-02-22T16:57:59.430Z,17.45
2023-02-22T17:00:26.096Z,17.52
2023-02-22T17:02:52.767Z,17.59
2023-02-22T17:05:19.430Z,18.13
2023-02-22T17:07:46.318Z,17.88
2023-02-22T17:10:12.969Z,17.81
2023-02-22T17:12:39.614Z,17.79
2023-02-22T17:15:06.402Z,17.86
2023-02-22T17:17:33.066Z,17.89
2023-02-22T17:19:59.696Z,17.93
2023-02-22T17:22:26.343Z,17.98
2023-02-22T17:24:52.980Z,18.06
2023-02-22T17:27:19.606Z,18.10
2023-02-22T17:29:46.219Z,18.16
2023-02-22T17:32:12.923Z,18.20
2023-02-22T17:34:39.655Z,18.20
2023-02-22T17:37:06.323Z,18.29
2023-02-22T17:39:32.981Z,18.97
2023-02-22T17:41:59.618Z,18.67
2023-02-22T17:44:26.269Z,18.50
2023-02-22T17:46:52.973Z,18.47
2023-02-22T17:49:19.628Z,18.57
2023-02-22T17:51:46.285Z,18.54
2023-02-22T17:54:12.950Z,18.56
2023-02-22T17:56:39.628Z,18.63
2023-02-22T17:59:06.303Z,18.64
2023-02-22T18:01:32.975Z,17.28
2023-02-22T18:03:59.881Z,18.13
2023-02-22T18:06:26.546Z,18.40
2023-02-22T18:08:55.742Z,18.59
2023-02-22T18:11:22.964Z,18.65
2023-02-22T18:13:49.634Z,18.77
2023-02-22T18:16:16.531Z,18.81
2023-02-22T18:18:43.352Z,18.91
2023-02-22T18:21:10.043Z,18.91
2023-02-22T18:23:36.681Z,18.95
2023-02-22T18:26:11.222Z,19.04
2023-02-22T18:28:38.431Z,19.08
2023-02-22T18:31:05.603Z,19.12
2023-02-22T18:33:32.320Z,19.15
2023-02-22T18:35:58.970Z,19.16
2023-02-22T18:38:25.644Z,19.21
2023-02-22T18:40:52.316Z,19.26
2023-02-22T18:43:18.968Z,19.25
2023-02-22T18:45:45.596Z,19.28
2023-02-22T18:48:12.396Z,19.31
2023-02-22T18:50:39.084Z,19.35
2023-02-22T18:53:05.747Z,19.39
2023-02-22T18:55:32.395Z,19.38
2023-02-22T18:57:59.028Z,19.43
2023-02-22T19:00:25.652Z,19.39
2023-02-22T19:02:52.358Z,19.42
2023-02-22T19:05:19.098Z,19.43
2023-02-22T19:07:45.775Z,19.36
2023-02-22T19:10:12.449Z,19.48
2023-02-22T19:12:39.309Z,19.86
2023-02-22T19:15:05.946Z,19.62
2023-02-22T19:17:32.582Z,19.59
2023-02-22T19:19:59.234Z,19.63
2023-02-22T19:25:10.252Z,19.79
2023-02-22T19:27:37.142Z,19.83
2023-02-22T19:30:03.818Z,19.87
2023-02-22T19:32:30.584Z,19.91
2023-02-22T19:34:57.309Z,19.91
2023-02-22T19:37:24.177Z,19.97
2023-02-22T19:39:50.839Z,19.98
2023-02-22T19:42:17.511Z,19.97
2023-02-22T19:44:44.178Z,20.01
2023-02-22T19:47:10.825Z,20.06
2023-02-22T19:49:37.517Z,20.11
2023-02-22T19:52:04.191Z,20.11
2023-02-22T19:54:31.204Z,20.16
2023-02-22T19:56:57.856Z,20.20
2023-02-22T19:59:24.513Z,20.20
2023-02-22T20:01:51.150Z,20.21
2023-02-22T20:04:17.943Z,20.24
2023-02-22T20:06:44.795Z,20.68
2023-02-22T20:09:11.740Z,20.38
2023-02-22T20:11:39.270Z,20.35
2023-02-22T20:14:05.913Z,20.34
2023-02-22T20:16:32.592Z,20.32
2023-02-22T20:18:59.257Z,20.34
2023-02-22T20:21:25.898Z,20.32
2023-02-22T20:23:52.783Z,20.37
2023-02-22T20:26:19.432Z,20.34
2023-02-22T20:28:46.097Z,20.37
2023-02-22T20:31:12.956Z,20.95
2023-02-22T20:33:39.685Z,20.54
2023-02-22T20:36:06.401Z,20.48
2023-02-22T20:38:33.076Z,20.47
2023-02-22T20:40:59.937Z,20.45
2023-02-22T20:43:26.597Z,20.52
2023-02-22T20:45:53.272Z,20.48
2023-02-22T20:48:19.934Z,20.45
2023-02-22T20:50:46.584Z,20.54
2023-02-22T20:53:13.526Z,20.51
2023-02-22T20:55:40.177Z,20.49
2023-02-22T20:58:06.851Z,20.54
2023-02-22T21:00:33.534Z,20.51
2023-02-22T21:03:00.177Z,20.54
2023-02-22T21:05:26.845Z,20.54
2023-02-22T21:07:53.491Z,18.37
2023-02-22T21:10:20.191Z,19.62
2023-02-22T21:12:46.844Z,19.93
2023-02-22T21:15:13.698Z,20.13
2023-02-22T21:17:40.360Z,20.00
2023-02-22T21:20:07.012Z,19.87
2023-02-22T21:22:33.669Z,19.84
2023-02-22T21:25:00.297Z,19.84
2023-02-22T21:27:26.927Z,19.81
2023-02-22T21:29:53.577Z,19.81
2023-02-22T21:32:20.339Z,19.80
2023-02-22T21:34:47.029Z,19.80
2023-02-22T21:37:13.691Z,19.79
2023-02-22T21:39:40.352Z,19.79
2023-02-22T21:42:07.033Z,19.77
2023-02-22T21:44:33.690Z,19.79
2023-02-22T21:47:00.403Z,19.81
2023-02-22T21:49:27.106Z,19.79
2023-02-22T21:51:53.792Z,19.80
2023-02-22T21:54:20.492Z,19.80
2023-02-22T21:56:47.158Z,19.81
2023-02-22T21:59:13.797Z,19.84
2023-02-22T22:01:40.508Z,19.81
2023-02-22T22:04:07.377Z,19.81
2023-02-22T22:06:34.013Z,19.84
2023-02-22T22:09:00.908Z,19.84
2023-02-22T22:11:27.573Z,19.84
2023-02-22T22:13:54.235Z,19.84
2023-02-22T22:16:21.085Z,19.84
2023-02-22T22:18:47.750Z,19.86
2023-02-22T22:21:14.652Z,19.90
2023-02-22T22:23:41.317Z,19.89
2023-02-22T22:26:08.210Z,19.89
2023-02-22T22:28:34.852Z,19.90
2023-02-22T22:31:01.584Z,19.90
2023-02-22T22:33:28.295Z,19.90
2023-02-22T22:35:54.924Z,19.93
2023-02-22T22:38:21.566Z,19.93
2023-02-22T22:40:48.203Z,19.96
2023-02-22T22:43:14.870Z,19.96
2023-02-22T22:45:41.505Z,19.93
2023-02-22T22:48:08.129Z,19.94
2023-02-22T22:50:34.760Z,19.97
2023-02-22T22:53:01.388Z,19.97
2023-02-22T22:55:28.035Z,19.94
2023-02-22T22:57:54.688Z,19.98
2023-02-22T23:00:21.328Z,20.00
2023-02-22T23:02:48.114Z,19.98
2023-02-22T23:05:14.855Z,19.97
2023-02-22T23:07:41.500Z,20.01
2023-02-22T23:10:08.355Z,19.98
2023-02-22T23:12:35.198Z,20.01
2023-02-22T23:15:01.835Z,20.00
2023-02-22T23:17:28.703Z,20.00
2023-02-22T23:19:55.331Z,19.98
2023-02-22T23:22:22.218Z,20.01
2023-02-22T23:24:48.900Z,19.98
2023-02-22T23:27:15.744Z,20.00
2023-02-22T23:29:42.398Z,20.01
2023-02-22T23:32:09.229Z,20.01
2023-02-22T23:34:38.818Z,20.00
2023-02-22T23:37:05.499Z,20.00
2023-02-22T23:39:32.369Z,19.98
2023-02-22T23:41:59.092Z,19.98
2023-02-22T23:44:25.830Z,20.01
2023-02-22T23:46:52.510Z,19.97
2023-02-22T23:49:19.179Z,20.01
2023-02-22T23:51:45.837Z,20.00
2023-02-22T23:54:12.500Z,19.98
2023-02-22T23:56:40.458Z,19.96
2023-02-22T23:59:07.176Z,19.98
